sensor_id;sensor_type;location;lat;lon;timestamp;pressure;altitude;pressure_sealevel;temperature;humidity
79366;BME280;68833;53.160;17.920;2023-12-20T00:02:13;99849.23;;;6.20;88.23
79366;BME280;68833;53.160;17.920;2023-12-20T00:04:48;99850.98;;;6.21;88.28
79366;BME280;68833;53.160;17.920;2023-12-20T00:07:42;99854.80;;;6.21;88.12
79366;BME280;68833;53.160;17.920;2023-12-20T00:10:11;99852.03;;;6.17;88.25
79366;BME280;68833;53.160;17.920;2023-12-20T00:12:44;99854.31;;;6.17;88.34
79366;BME280;68833;53.160;17.920;2023-12-20T00:15:13;99853.25;;;6.18;88.11
79366;BME280;68833;53.160;17.920;2023-12-20T00:17:43;99850.99;;;6.17;88.32
79366;BME280;68833;53.160;17.920;2023-12-20T00:20:18;99848.88;;;6.18;88.41
79366;BME280;68833;53.160;17.920;2023-12-20T00:22:56;99851.15;;;6.19;88.31
79366;BME280;68833;53.160;17.920;2023-12-20T00:25:45;99852.38;;;6.18;88.35
79366;BME280;68833;53.160;17.920;2023-12-20T00:28:35;99842.80;;;6.18;88.16
79366;BME280;68833;53.160;17.920;2023-12-20T00:31:10;99845.05;;;6.19;88.34
79366;BME280;68833;53.160;17.920;2023-12-20T00:33:47;99841.37;;;6.22;88.29
79366;BME280;68833;53.160;17.920;2023-12-20T00:36:30;99837.36;;;6.24;88.03
79366;BME280;68833;53.160;17.920;2023-12-20T00:39:34;99833.34;;;6.24;88.34
79366;BME280;68833;53.160;17.920;2023-12-20T00:42:08;99838.92;;;6.26;88.25
79366;BME280;68833;53.160;17.920;2023-12-20T00:44:37;99840.48;;;6.26;88.34
79366;BME280;68833;53.160;17.920;2023-12-20T00:47:10;99844.13;;;6.27;88.22
79366;BME280;68833;53.160;17.920;2023-12-20T00:50:12;99842.39;;;6.28;88.24
79366;BME280;68833;53.160;17.920;2023-12-20T00:52:45;99843.77;;;6.29;88.12
79366;BME280;68833;53.160;17.920;2023-12-20T00:55:26;99837.34;;;6.29;88.41
79366;BME280;68833;53.160;17.920;2023-12-20T00:57:59;99839.60;;;6.28;88.32
79366;BME280;68833;53.160;17.920;2023-12-20T01:00:50;99836.29;;;6.28;88.43
79366;BME280;68833;53.160;17.920;2023-12-20T01:03:43;99835.77;;;6.28;88.19
79366;BME280;68833;53.160;17.920;2023-12-20T01:06:14;99831.58;;;6.29;88.37
79366;BME280;68833;53.160;17.920;2023-12-20T01:08:43;99831.40;;;6.29;88.17
79366;BME280;68833;53.160;17.920;2023-12-20T01:11:30;99829.48;;;6.29;88.30
79366;BME280;68833;53.160;17.920;2023-12-20T01:14:21;99816.77;;;6.27;88.43
79366;BME280;68833;53.160;17.920;2023-12-20T01:17:09;99819.20;;;6.29;88.44
79366;BME280;68833;53.160;17.920;2023-12-20T01:19:39;99818.67;;;6.29;88.40
79366;BME280;68833;53.160;17.920;2023-12-20T01:22:11;99818.84;;;6.30;88.40
79366;BME280;68833;53.160;17.920;2023-12-20T01:24:42;99814.30;;;6.30;88.37
79366;BME280;68833;53.160;17.920;2023-12-20T01:27:31;99811.86;;;6.30;88.44
79366;BME280;68833;53.160;17.920;2023-12-20T01:30:39;99813.07;;;6.31;88.49
79366;BME280;68833;53.160;17.920;2023-12-20T01:33:30;99808.20;;;6.30;88.31
79366;BME280;68833;53.160;17.920;2023-12-20T01:36:03;99810.30;;;6.30;88.49
79366;BME280;68833;53.160;17.920;2023-12-20T01:39:00;99805.05;;;6.30;88.42
79366;BME280;68833;53.160;17.920;2023-12-20T01:41:51;99795.96;;;6.33;88.37
79366;BME280;68833;53.160;17.920;2023-12-20T01:44:56;99793.36;;;6.33;88.37
79366;BME280;68833;53.160;17.920;2023-12-20T01:47:27;99793.70;;;6.35;88.56
79366;BME280;68833;53.160;17.920;2023-12-20T01:49:56;99789.70;;;6.34;88.45
79366;BME280;68833;53.160;17.920;2023-12-20T01:53:08;99784.64;;;6.34;88.32
79366;BME280;68833;53.160;17.920;2023-12-20T01:55:40;99791.45;;;6.34;88.34
79366;BME280;68833;53.160;17.920;2023-12-20T01:58:21;99780.27;;;6.34;88.35
79366;BME280;68833;53.160;17.920;2023-12-20T02:00:50;99780.61;;;6.36;88.41
79366;BME280;68833;53.160;17.920;2023-12-20T02:03:18;99780.08;;;6.36;88.44
79366;BME280;68833;53.160;17.920;2023-12-20T02:06:14;99784.97;;;6.35;88.43
79366;BME280;68833;53.160;17.920;2023-12-20T02:09:03;99784.11;;;6.35;88.45
79366;BME280;68833;53.160;17.920;2023-12-20T02:11:35;99782.70;;;6.36;88.43
79366;BME280;68833;53.160;17.920;2023-12-20T02:14:20;99782.00;;;6.37;88.41
79366;BME280;68833;53.160;17.920;2023-12-20T02:17:07;99773.09;;;6.38;88.47
79366;BME280;68833;53.160;17.920;2023-12-20T02:19:48;99771.17;;;6.39;88.42
79366;BME280;68833;53.160;17.920;2023-12-20T02:22:17;99771.70;;;6.38;88.45
79366;BME280;68833;53.160;17.920;2023-12-20T02:25:09;99767.17;;;6.36;88.36
79366;BME280;68833;53.160;17.920;2023-12-20T02:27:44;99769.27;;;6.36;88.29
79366;BME280;68833;53.160;17.920;2023-12-20T02:30:25;99767.17;;;6.37;88.38
79366;BME280;68833;53.160;17.920;2023-12-20T02:33:12;99763.86;;;6.36;88.58
79366;BME280;68833;53.160;17.920;2023-12-20T02:35:49;99764.73;;;6.36;88.51
79366;BME280;68833;53.160;17.920;2023-12-20T02:38:29;99761.80;;;6.35;88.60
79366;BME280;68833;53.160;17.920;2023-12-20T02:41:00;99761.44;;;6.35;88.62
79366;BME280;68833;53.160;17.920;2023-12-20T02:43:30;99762.63;;;6.38;88.50
79366;BME280;68833;53.160;17.920;2023-12-20T02:46:22;99757.55;;;6.41;88.47
79366;BME280;68833;53.160;17.920;2023-12-20T02:49:35;99756.15;;;6.40;88.49
79366;BME280;68833;53.160;17.920;2023-12-20T02:52:12;99754.94;;;6.40;88.38
79366;BME280;68833;53.160;17.920;2023-12-20T02:55:18;99758.97;;;6.38;88.53
79366;BME280;68833;53.160;17.920;2023-12-20T02:58:10;99756.70;;;6.37;88.44
79366;BME280;68833;53.160;17.920;2023-12-20T03:00:48;99758.80;;;6.37;88.41
79366;BME280;68833;53.160;17.920;2023-12-20T03:03:20;99755.84;;;6.36;88.41
79366;BME280;68833;53.160;17.920;2023-12-20T03:05:50;99752.34;;;6.38;88.42
79366;BME280;68833;53.160;17.920;2023-12-20T03:08:37;99751.99;;;6.38;88.42
79366;BME280;68833;53.160;17.920;2023-12-20T03:11:30;99747.83;;;6.35;88.40
79366;BME280;68833;53.160;17.920;2023-12-20T03:14:12;99752.18;;;6.36;88.51
79366;BME280;68833;53.160;17.920;2023-12-20T03:16:56;99749.75;;;6.36;88.20
79366;BME280;68833;53.160;17.920;2023-12-20T03:19:27;99747.64;;;6.37;88.58
79366;BME280;68833;53.160;17.920;2023-12-20T03:21:59;99754.25;;;6.39;88.41
79366;BME280;68833;53.160;17.920;2023-12-20T03:24:45;99749.89;;;6.38;88.39
79366;BME280;68833;53.160;17.920;2023-12-20T03:27:39;99750.25;;;6.37;88.43
79366;BME280;68833;53.160;17.920;2023-12-20T03:30:28;99753.23;;;6.38;88.50
79366;BME280;68833;53.160;17.920;2023-12-20T03:32:59;99752.17;;;6.37;88.26
79366;BME280;68833;53.160;17.920;2023-12-20T03:36:06;99749.40;;;6.35;88.34
79366;BME280;68833;53.160;17.920;2023-12-20T03:38:36;99747.84;;;6.33;88.42
79366;BME280;68833;53.160;17.920;2023-12-20T03:41:11;99747.67;;;6.32;88.43
79366;BME280;68833;53.160;17.920;2023-12-20T03:43:56;99747.70;;;6.28;88.51
79366;BME280;68833;53.160;17.920;2023-12-20T03:46:56;99749.27;;;6.27;88.44
79366;BME280;68833;53.160;17.920;2023-12-20T03:49:31;99747.52;;;6.27;88.64
79366;BME280;68833;53.160;17.920;2023-12-20T03:52:19;99747.70;;;6.28;88.52
79366;BME280;68833;53.160;17.920;2023-12-20T03:55:07;99748.05;;;6.29;88.32
79366;BME280;68833;53.160;17.920;2023-12-20T03:57:36;99744.91;;;6.27;88.49
79366;BME280;68833;53.160;17.920;2023-12-20T04:00:10;99743.02;;;6.25;88.47
79366;BME280;68833;53.160;17.920;2023-12-20T04:02:54;99743.88;;;6.25;88.45
79366;BME280;68833;53.160;17.920;2023-12-20T04:05:26;99744.22;;;6.26;88.48
79366;BME280;68833;53.160;17.920;2023-12-20T04:08:09;99745.96;;;6.26;88.44
79366;BME280;68833;53.160;17.920;2023-12-20T04:10:43;99745.79;;;6.27;88.47
79366;BME280;68833;53.160;17.920;2023-12-20T04:13:22;99743.52;;;6.28;88.34
79366;BME280;68833;53.160;17.920;2023-12-20T04:15:51;99743.52;;;6.25;88.39
79366;BME280;68833;53.160;17.920;2023-12-20T04:18:31;99745.45;;;6.26;88.32
79366;BME280;68833;53.160;17.920;2023-12-20T04:21:03;99740.90;;;6.29;88.32
79366;BME280;68833;53.160;17.920;2023-12-20T04:23:53;99744.04;;;6.29;88.18
79366;BME280;68833;53.160;17.920;2023-12-20T04:27:00;99746.80;;;6.30;88.16
79366;BME280;68833;53.160;17.920;2023-12-20T04:29:29;99745.42;;;6.30;88.22
79366;BME280;68833;53.160;17.920;2023-12-20T04:32:16;99738.46;;;6.28;88.35
79366;BME280;68833;53.160;17.920;2023-12-20T04:35:05;99742.13;;;6.29;88.17
79366;BME280;68833;53.160;17.920;2023-12-20T04:38:02;99742.64;;;6.28;88.20
79366;BME280;68833;53.160;17.920;2023-12-20T04:40:35;99745.42;;;6.30;88.09
79366;BME280;68833;53.160;17.920;2023-12-20T04:43:22;99746.98;;;6.30;88.08
79366;BME280;68833;53.160;17.920;2023-12-20T04:46:11;99743.70;;;6.27;88.15
79366;BME280;68833;53.160;17.920;2023-12-20T04:49:19;99748.40;;;6.28;88.08
79366;BME280;68833;53.160;17.920;2023-12-20T04:51:50;99748.05;;;6.29;88.06
79366;BME280;68833;53.160;17.920;2023-12-20T04:54:27;99750.15;;;6.28;87.87
79366;BME280;68833;53.160;17.920;2023-12-20T04:57:15;99757.14;;;6.27;87.87
79366;BME280;68833;53.160;17.920;2023-12-20T04:59:45;99751.38;;;6.26;88.00
79366;BME280;68833;53.160;17.920;2023-12-20T05:02:14;99753.45;;;6.28;87.76
79366;BME280;68833;53.160;17.920;2023-12-20T05:04:53;99756.45;;;6.25;87.80
79366;BME280;68833;53.160;17.920;2023-12-20T05:07:47;99758.73;;;6.23;87.93
79366;BME280;68833;53.160;17.920;2023-12-20T05:10:29;99760.28;;;6.23;87.77
79366;BME280;68833;53.160;17.920;2023-12-20T05:13:05;99756.10;;;6.22;87.54
79366;BME280;68833;53.160;17.920;2023-12-20T05:15:33;99750.70;;;6.22;87.74
79366;BME280;68833;53.160;17.920;2023-12-20T05:18:26;99751.92;;;6.20;87.67
79366;BME280;68833;53.160;17.920;2023-12-20T05:20:57;99752.29;;;6.18;87.57
79366;BME280;68833;53.160;17.920;2023-12-20T05:23:45;99749.69;;;6.18;87.55
79366;BME280;68833;53.160;17.920;2023-12-20T05:26:32;99747.60;;;6.16;87.50
79366;BME280;68833;53.160;17.920;2023-12-20T05:29:12;99740.80;;;6.16;87.57
79366;BME280;68833;53.160;17.920;2023-12-20T05:31:45;99740.48;;;6.13;87.27
79366;BME280;68833;53.160;17.920;2023-12-20T05:34:12;99746.40;;;6.12;87.22
79366;BME280;68833;53.160;17.920;2023-12-20T05:36:42;99750.42;;;6.12;87.28
79366;BME280;68833;53.160;17.920;2023-12-20T05:39:12;99745.54;;;6.12;87.31
79366;BME280;68833;53.160;17.920;2023-12-20T05:41:39;99745.02;;;6.13;87.26
79366;BME280;68833;53.160;17.920;2023-12-20T05:44:06;99751.46;;;6.11;87.29
79366;BME280;68833;53.160;17.920;2023-12-20T05:46:33;99754.08;;;6.11;87.20
79366;BME280;68833;53.160;17.920;2023-12-20T05:49:00;99752.69;;;6.12;87.35
79366;BME280;68833;53.160;17.920;2023-12-20T05:51:27;99744.13;;;6.14;87.10
79366;BME280;68833;53.160;17.920;2023-12-20T05:53:54;99744.46;;;6.15;86.99
79366;BME280;68833;53.160;17.920;2023-12-20T05:56:23;99747.79;;;6.14;86.90
79366;BME280;68833;53.160;17.920;2023-12-20T05:58:51;99744.13;;;6.14;86.93
79366;BME280;68833;53.160;17.920;2023-12-20T06:01:18;99740.12;;;6.15;86.81
79366;BME280;68833;53.160;17.920;2023-12-20T06:03:45;99736.10;;;6.15;86.61
79366;BME280;68833;53.160;17.920;2023-12-20T06:06:15;99735.77;;;6.15;86.73
79366;BME280;68833;53.160;17.920;2023-12-20T06:08:42;99733.85;;;6.13;86.75
79366;BME280;68833;53.160;17.920;2023-12-20T06:11:10;99732.80;;;6.12;86.66
79366;BME280;68833;53.160;17.920;2023-12-20T06:13:37;99733.86;;;6.11;86.70
79366;BME280;68833;53.160;17.920;2023-12-20T06:16:05;99740.31;;;6.09;86.41
79366;BME280;68833;53.160;17.920;2023-12-20T06:18:34;99744.69;;;6.07;86.38
79366;BME280;68833;53.160;17.920;2023-12-20T06:21:03;99748.52;;;6.05;86.33
79366;BME280;68833;53.160;17.920;2023-12-20T06:23:33;99748.55;;;6.03;86.33
79366;BME280;68833;53.160;17.920;2023-12-20T06:26:00;99738.11;;;5.98;86.26
79366;BME280;68833;53.160;17.920;2023-12-20T06:28:30;99744.91;;;5.96;86.31
79366;BME280;68833;53.160;17.920;2023-12-20T06:30:57;99746.84;;;5.93;86.30
79366;BME280;68833;53.160;17.920;2023-12-20T06:33:24;99752.93;;;5.93;86.30
79366;BME280;68833;53.160;17.920;2023-12-20T06:35:51;99754.16;;;5.91;86.27
79366;BME280;68833;53.160;17.920;2023-12-20T06:38:19;99748.61;;;5.88;86.19
79366;BME280;68833;53.160;17.920;2023-12-20T06:40:46;99751.05;;;5.85;86.24
79366;BME280;68833;53.160;17.920;2023-12-20T06:43:13;99752.82;;;5.82;85.89
79366;BME280;68833;53.160;17.920;2023-12-20T06:45:40;99751.59;;;5.80;85.91
79366;BME280;68833;53.160;17.920;2023-12-20T06:48:08;99753.70;;;5.79;85.92
79366;BME280;68833;53.160;17.920;2023-12-20T06:50:35;99749.70;;;5.76;86.20
79366;BME280;68833;53.160;17.920;2023-12-20T06:53:06;99745.88;;;5.73;85.86
79366;BME280;68833;53.160;17.920;2023-12-20T06:55:35;99746.77;;;5.71;86.06
79366;BME280;68833;53.160;17.920;2023-12-20T06:58:03;99748.69;;;5.69;85.87
79366;BME280;68833;53.160;17.920;2023-12-20T07:00:32;99748.35;;;5.67;86.36
79366;BME280;68833;53.160;17.920;2023-12-20T07:02:59;99748.00;;;5.68;86.29
79366;BME280;68833;53.160;17.920;2023-12-20T07:05:26;99748.35;;;5.67;85.87
79366;BME280;68833;53.160;17.920;2023-12-20T07:07:53;99751.66;;;5.67;85.86
79366;BME280;68833;53.160;17.920;2023-12-20T07:10:20;99746.44;;;5.65;85.73
79366;BME280;68833;53.160;17.920;2023-12-20T07:12:47;99752.54;;;5.63;85.90
79366;BME280;68833;53.160;17.920;2023-12-20T07:15:15;99755.00;;;5.60;85.80
79366;BME280;68833;53.160;17.920;2023-12-20T07:17:43;99762.83;;;5.60;85.51
79366;BME280;68833;53.160;17.920;2023-12-20T07:20:11;99763.71;;;5.59;86.11
79366;BME280;68833;53.160;17.920;2023-12-20T07:22:38;99761.45;;;5.58;85.79
79366;BME280;68833;53.160;17.920;2023-12-20T07:25:06;99769.64;;;5.57;85.93
79366;BME280;68833;53.160;17.920;2023-12-20T07:27:33;99764.27;;;5.54;85.57
79366;BME280;68833;53.160;17.920;2023-12-20T07:30:00;99771.73;;;5.54;85.94
79366;BME280;68833;53.160;17.920;2023-12-20T07:32:27;99766.86;;;5.53;85.96
79366;BME280;68833;53.160;17.920;2023-12-20T07:34:55;99765.99;;;5.53;85.88
79366;BME280;68833;53.160;17.920;2023-12-20T07:37:22;99766.17;;;5.52;85.79
79366;BME280;68833;53.160;17.920;2023-12-20T07:39:49;99766.71;;;5.48;85.73
79366;BME280;68833;53.160;17.920;2023-12-20T07:42:19;99763.94;;;5.45;85.55
79366;BME280;68833;53.160;17.920;2023-12-20T07:44:48;99766.20;;;5.40;85.38
79366;BME280;68833;53.160;17.920;2023-12-20T07:47:16;99768.83;;;5.38;85.44
79366;BME280;68833;53.160;17.920;2023-12-20T07:49:48;99770.77;;;5.34;85.35
79366;BME280;68833;53.160;17.920;2023-12-20T07:52:15;99770.95;;;5.32;85.68
79366;BME280;68833;53.160;17.920;2023-12-20T07:54:45;99765.73;;;5.30;85.37
79366;BME280;68833;53.160;17.920;2023-12-20T07:57:12;99762.42;;;5.26;85.31
79366;BME280;68833;53.160;17.920;2023-12-20T07:59:39;99765.55;;;5.20;84.98
79366;BME280;68833;53.160;17.920;2023-12-20T08:02:06;99768.89;;;5.12;85.22
79366;BME280;68833;53.160;17.920;2023-12-20T08:04:34;99783.34;;;5.09;85.92
79366;BME280;68833;53.160;17.920;2023-12-20T08:07:03;99778.29;;;5.08;84.97
79366;BME280;68833;53.160;17.920;2023-12-20T08:09:30;99775.52;;;5.06;85.02
79366;BME280;68833;53.160;17.920;2023-12-20T08:11:58;99774.46;;;5.04;85.07
79366;BME280;68833;53.160;17.920;2023-12-20T08:14:28;99771.52;;;5.03;85.48
79366;BME280;68833;53.160;17.920;2023-12-20T08:16:58;99773.08;;;5.02;85.40
79366;BME280;68833;53.160;17.920;2023-12-20T08:19:25;99770.47;;;4.98;85.60
79366;BME280;68833;53.160;17.920;2023-12-20T08:21:52;99768.23;;;4.98;85.87
79366;BME280;68833;53.160;17.920;2023-12-20T08:24:19;99763.69;;;5.00;85.37
79366;BME280;68833;53.160;17.920;2023-12-20T08:26:46;99763.69;;;5.03;85.74
79366;BME280;68833;53.160;17.920;2023-12-20T08:29:14;99762.29;;;5.03;85.64
79366;BME280;68833;53.160;17.920;2023-12-20T08:31:41;99760.73;;;5.02;85.24
79366;BME280;68833;53.160;17.920;2023-12-20T08:34:08;99762.48;;;4.99;85.92
79366;BME280;68833;53.160;17.920;2023-12-20T08:36:35;99763.70;;;4.96;85.43
79366;BME280;68833;53.160;17.920;2023-12-20T08:39:02;99765.60;;;4.94;85.53
79366;BME280;68833;53.160;17.920;2023-12-20T08:41:33;99763.34;;;4.93;85.86
79366;BME280;68833;53.160;17.920;2023-12-20T08:44:01;99765.78;;;4.94;85.33
79366;BME280;68833;53.160;17.920;2023-12-20T08:46:28;99766.65;;;4.90;85.79
79366;BME280;68833;53.160;17.920;2023-12-20T08:48:55;99761.79;;;4.89;86.04
79366;BME280;68833;53.160;17.920;2023-12-20T08:51:22;99754.83;;;4.86;85.90
79366;BME280;68833;53.160;17.920;2023-12-20T08:53:52;99754.67;;;4.82;85.92
79366;BME280;68833;53.160;17.920;2023-12-20T08:56:19;99752.22;;;4.78;85.92
79366;BME280;68833;53.160;17.920;2023-12-20T08:58:46;99745.96;;;4.76;86.01
79366;BME280;68833;53.160;17.920;2023-12-20T09:01:14;99744.57;;;4.76;85.77
79366;BME280;68833;53.160;17.920;2023-12-20T09:03:41;99747.36;;;4.76;86.04
79366;BME280;68833;53.160;17.920;2023-12-20T09:06:08;99745.62;;;4.75;86.16
79366;BME280;68833;53.160;17.920;2023-12-20T09:08:35;99744.05;;;4.75;86.52
79366;BME280;68833;53.160;17.920;2023-12-20T09:11:03;99738.66;;;4.74;86.29
79366;BME280;68833;53.160;17.920;2023-12-20T09:13:30;99739.70;;;4.77;86.51
79366;BME280;68833;53.160;17.920;2023-12-20T09:15:58;99733.95;;;4.79;86.58
79366;BME280;68833;53.160;17.920;2023-12-20T09:18:26;99731.88;;;4.80;86.85
79366;BME280;68833;53.160;17.920;2023-12-20T09:20:53;99733.60;;;4.84;86.01
79366;BME280;68833;53.160;17.920;2023-12-20T09:23:20;99731.86;;;4.86;86.19
79366;BME280;68833;53.160;17.920;2023-12-20T09:25:47;99727.51;;;4.88;86.69
79366;BME280;68833;53.160;17.920;2023-12-20T09:28:14;99728.38;;;4.90;86.55
79366;BME280;68833;53.160;17.920;2023-12-20T09:30:42;99727.84;;;4.94;86.74
79366;BME280;68833;53.160;17.920;2023-12-20T09:33:09;99727.33;;;4.96;85.96
79366;BME280;68833;53.160;17.920;2023-12-20T09:35:36;99729.76;;;4.99;86.55
79366;BME280;68833;53.160;17.920;2023-12-20T09:38:04;99730.45;;;4.98;86.14
79366;BME280;68833;53.160;17.920;2023-12-20T09:40:32;99724.36;;;4.96;86.31
79366;BME280;68833;53.160;17.920;2023-12-20T09:43:04;99719.50;;;4.93;86.52
79366;BME280;68833;53.160;17.920;2023-12-20T09:45:32;99711.33;;;4.93;86.19
79366;BME280;68833;53.160;17.920;2023-12-20T09:48:00;99706.09;;;4.95;85.82
79366;BME280;68833;53.160;17.920;2023-12-20T09:50:28;99698.08;;;4.99;86.61
79366;BME280;68833;53.160;17.920;2023-12-20T09:52:58;99692.50;;;5.04;86.42
79366;BME280;68833;53.160;17.920;2023-12-20T09:55:27;99678.74;;;5.08;86.47
79366;BME280;68833;53.160;17.920;2023-12-20T09:57:57;99677.34;;;5.11;86.25
79366;BME280;68833;53.160;17.920;2023-12-20T10:00:23;99680.47;;;5.14;86.35
79366;BME280;68833;53.160;17.920;2023-12-20T10:02:58;99673.66;;;5.17;86.42
79366;BME280;68833;53.160;17.920;2023-12-20T10:05:28;99670.17;;;5.22;86.79
79366;BME280;68833;53.160;17.920;2023-12-20T10:07:56;99673.27;;;5.28;86.64
79366;BME280;68833;53.160;17.920;2023-12-20T10:10:24;99668.89;;;5.34;86.51
79366;BME280;68833;53.160;17.920;2023-12-20T10:13:07;99672.54;;;5.37;86.80
79366;BME280;68833;53.160;17.920;2023-12-20T10:15:36;99669.59;;;5.35;86.29
79366;BME280;68833;53.160;17.920;2023-12-20T10:18:04;99665.60;;;5.32;86.32
79366;BME280;68833;53.160;17.920;2023-12-20T10:20:32;99655.86;;;5.29;86.02
79366;BME280;68833;53.160;17.920;2023-12-20T10:23:02;99653.27;;;5.28;86.09
79366;BME280;68833;53.160;17.920;2023-12-20T10:25:31;99649.96;;;5.26;86.35
79366;BME280;68833;53.160;17.920;2023-12-20T10:28:14;99656.22;;;5.27;85.94
79366;BME280;68833;53.160;17.920;2023-12-20T10:30:44;99647.17;;;5.25;86.28
79366;BME280;68833;53.160;17.920;2023-12-20T10:33:12;99640.55;;;5.24;86.07
79366;BME280;68833;53.160;17.920;2023-12-20T10:35:42;99638.48;;;5.23;86.10
79366;BME280;68833;53.160;17.920;2023-12-20T10:38:10;99632.57;;;5.21;85.89
79366;BME280;68833;53.160;17.920;2023-12-20T10:40:38;99629.26;;;5.20;85.93
79366;BME280;68833;53.160;17.920;2023-12-20T10:43:05;99633.27;;;5.19;86.03
79366;BME280;68833;53.160;17.920;2023-12-20T10:45:33;99633.09;;;5.20;85.68
79366;BME280;68833;53.160;17.920;2023-12-20T10:48:01;99627.52;;;5.20;86.13
79366;BME280;68833;53.160;17.920;2023-12-20T10:50:30;99624.39;;;5.19;85.66
79366;BME280;68833;53.160;17.920;2023-12-20T10:52:58;99617.61;;;5.18;86.21
79366;BME280;68833;53.160;17.920;2023-12-20T10:55:26;99615.52;;;5.17;86.36
79366;BME280;68833;53.160;17.920;2023-12-20T10:58:12;99612.21;;;5.17;86.08
79366;BME280;68833;53.160;17.920;2023-12-20T11:03:36;99596.73;;;5.14;86.02
79366;BME280;68833;53.160;17.920;2023-12-20T11:06:33;99596.91;;;5.12;86.15
79366;BME280;68833;53.160;17.920;2023-12-20T11:12:15;99577.95;;;5.12;85.81
79366;BME280;68833;53.160;17.920;2023-12-20T11:14:54;99569.97;;;5.08;86.06
79366;BME280;68833;53.160;17.920;2023-12-20T11:17:34;99566.65;;;5.07;86.62
79366;BME280;68833;53.160;17.920;2023-12-20T11:20:04;99562.15;;;5.06;85.98
79366;BME280;68833;53.160;17.920;2023-12-20T11:22:33;99556.93;;;5.05;86.42
79366;BME280;68833;53.160;17.920;2023-12-20T11:25:11;99552.23;;;5.05;86.36
79366;BME280;68833;53.160;17.920;2023-12-20T11:27:42;99545.27;;;5.06;85.95
79366;BME280;68833;53.160;17.920;2023-12-20T11:30:14;99541.95;;;5.05;86.21
79366;BME280;68833;53.160;17.920;2023-12-20T11:32:45;99536.56;;;5.06;86.25
79366;BME280;68833;53.160;17.920;2023-12-20T11:37:40;99527.70;;;5.04;86.32
79366;BME280;68833;53.160;17.920;2023-12-20T11:40:18;99524.75;;;5.02;85.96
79366;BME280;68833;53.160;17.920;2023-12-20T11:42:50;99520.05;;;5.01;86.19
79366;BME280;68833;53.160;17.920;2023-12-20T11:45:24;99515.36;;;4.99;86.20
79366;BME280;68833;53.160;17.920;2023-12-20T11:47:51;99511.38;;;4.97;86.09
79366;BME280;68833;53.160;17.920;2023-12-20T11:50:24;99508.94;;;4.96;86.06
79366;BME280;68833;53.160;17.920;2023-12-20T11:52:52;99498.85;;;4.95;86.51
79366;BME280;68833;53.160;17.920;2023-12-20T11:55:21;99495.73;;;4.95;86.87
79366;BME280;68833;53.160;17.920;2023-12-20T11:57:52;99487.89;;;4.96;86.66
79366;BME280;68833;53.160;17.920;2023-12-20T12:00:20;99489.08;;;4.98;86.66
79366;BME280;68833;53.160;17.920;2023-12-20T12:02:57;99483.70;;;4.99;86.52
79366;BME280;68833;53.160;17.920;2023-12-20T12:05:26;99478.13;;;5.00;86.62
79366;BME280;68833;53.160;17.920;2023-12-20T12:07:53;99471.17;;;4.97;86.71
79366;BME280;68833;53.160;17.920;2023-12-20T12:10:21;99470.84;;;4.95;86.70
79366;BME280;68833;53.160;17.920;2023-12-20T12:12:49;99468.40;;;4.96;86.46
79366;BME280;68833;53.160;17.920;2023-12-20T12:15:16;99461.27;;;4.96;86.55
79366;BME280;68833;53.160;17.920;2023-12-20T12:17:43;99464.21;;;4.98;86.69
79366;BME280;68833;53.160;17.920;2023-12-20T12:20:11;99456.91;;;4.97;86.72
79366;BME280;68833;53.160;17.920;2023-12-20T12:22:39;99454.81;;;4.99;86.47
79366;BME280;68833;53.160;17.920;2023-12-20T12:25:10;99443.87;;;4.96;87.12
79366;BME280;68833;53.160;17.920;2023-12-20T12:27:41;99435.66;;;4.99;86.79
79366;BME280;68833;53.160;17.920;2023-12-20T12:30:09;99432.88;;;5.01;86.88
79366;BME280;68833;53.160;17.920;2023-12-20T12:32:37;99432.69;;;5.02;86.43
79366;BME280;68833;53.160;17.920;2023-12-20T12:35:05;99431.48;;;5.02;86.46
79366;BME280;68833;53.160;17.920;2023-12-20T12:37:38;99429.05;;;5.01;86.43
79366;BME280;68833;53.160;17.920;2023-12-20T12:40:16;99427.14;;;5.00;86.95
79366;BME280;68833;53.160;17.920;2023-12-20T12:42:44;99418.96;;;4.99;86.06
79366;BME280;68833;53.160;17.920;2023-12-20T12:45:12;99415.14;;;4.98;86.30
79366;BME280;68833;53.160;17.920;2023-12-20T12:47:39;99412.20;;;4.97;86.74
79366;BME280;68833;53.160;17.920;2023-12-20T12:50:07;99408.73;;;4.95;86.51
79366;BME280;68833;53.160;17.920;2023-12-20T12:52:35;99401.78;;;4.92;86.43
79366;BME280;68833;53.160;17.920;2023-12-20T12:55:02;99396.58;;;4.92;86.58
79366;BME280;68833;53.160;17.920;2023-12-20T12:57:30;99395.70;;;4.93;86.79
79366;BME280;68833;53.160;17.920;2023-12-20T12:59:58;99392.05;;;4.92;86.08
79366;BME280;68833;53.160;17.920;2023-12-20T13:02:25;99399.36;;;4.91;86.84
79366;BME280;68833;53.160;17.920;2023-12-20T13:04:52;99400.92;;;4.92;86.75
79366;BME280;68833;53.160;17.920;2023-12-20T13:07:19;99400.92;;;4.90;86.97
79366;BME280;68833;53.160;17.920;2023-12-20T13:09:46;99398.14;;;4.90;86.47
79366;BME280;68833;53.160;17.920;2023-12-20T13:12:13;99394.48;;;4.90;86.79
79366;BME280;68833;53.160;17.920;2023-12-20T13:14:40;99394.30;;;4.91;87.39
79366;BME280;68833;53.160;17.920;2023-12-20T13:17:07;99386.65;;;4.93;86.91
79366;BME280;68833;53.160;17.920;2023-12-20T13:19:34;99388.20;;;4.96;86.49
79366;BME280;68833;53.160;17.920;2023-12-20T13:22:02;99381.58;;;4.95;87.06
79366;BME280;68833;53.160;17.920;2023-12-20T13:24:35;99376.55;;;4.93;86.84
79366;BME280;68833;53.160;17.920;2023-12-20T13:27:02;99380.55;;;4.96;86.13
79366;BME280;68833;53.160;17.920;2023-12-20T13:29:29;99384.02;;;4.96;86.71
79366;BME280;68833;53.160;17.920;2023-12-20T13:31:56;99388.88;;;4.96;86.51
79366;BME280;68833;53.160;17.920;2023-12-20T13:34:26;99387.14;;;4.97;87.02
79366;BME280;68833;53.160;17.920;2023-12-20T13:36:53;99384.02;;;4.96;86.11
79366;BME280;68833;53.160;17.920;2023-12-20T13:39:25;99376.19;;;4.95;86.39
79366;BME280;68833;53.160;17.920;2023-12-20T13:41:52;99372.34;;;4.99;86.41
79366;BME280;68833;53.160;17.920;2023-12-20T13:44:20;99369.02;;;5.00;86.46